createdAt,value
2023-03-29T00:00:50.187Z,0.70
2023-03-29T00:03:52.246Z,0.60
2023-03-29T00:06:55.239Z,0.57
2023-03-29T00:09:57.161Z,0.40
2023-03-29T00:12:59.262Z,0.60
2023-03-29T00:16:01.272Z,0.60
2023-03-29T00:19:03.906Z,0.60
2023-03-29T00:22:08.533Z,0.33
2023-03-29T00:25:11.625Z,0.53
2023-03-29T00:28:14.958Z,0.60
2023-03-29T00:31:18.351Z,0.53
2023-03-29T00:34:21.297Z,0.60
2023-03-29T00:37:27.086Z,0.53
2023-03-29T00:40:28.935Z,0.50
2023-03-29T00:43:30.882Z,0.60
2023-03-29T00:46:35.415Z,2.43
2023-03-29T00:49:37.942Z,0.70
2023-03-29T00:52:41.622Z,0.63
2023-03-29T00:56:10.276Z,0.60
2023-03-29T00:59:22.047Z,0.43
2023-03-29T01:02:28.336Z,0.50
2023-03-29T01:05:37.942Z,0.40
2023-03-29T01:08:52.778Z,0.60
2023-03-29T01:11:57.659Z,0.60
2023-03-29T01:15:12.228Z,0.57
2023-03-29T01:18:14.742Z,0.40
2023-03-29T01:21:30.481Z,0.60
2023-03-29T01:24:44.732Z,0.33
2023-03-29T01:28:02.916Z,0.60
2023-03-29T01:31:22.295Z,0.43
2023-03-29T01:34:33.656Z,0.43
2023-03-29T01:37:39.652Z,0.30
2023-03-29T01:40:41.928Z,0.83
2023-03-29T01:44:02.200Z,0.40
2023-03-29T01:47:37.039Z,0.60
2023-03-29T01:50:52.250Z,1.00
2023-03-29T01:54:09.102Z,0.73
2023-03-29T01:57:12.326Z,0.60
2023-03-29T02:00:17.474Z,0.80
2023-03-29T02:03:22.095Z,0.30
2023-03-29T02:06:26.684Z,0.27
2023-03-29T02:09:29.762Z,0.40
2023-03-29T02:12:31.604Z,0.83
2023-03-29T02:15:33.502Z,0.50
2023-03-29T02:18:35.774Z,0.40
2023-03-29T02:21:41.763Z,0.33
2023-03-29T02:24:45.476Z,0.70
2023-03-29T02:27:47.814Z,0.47
2023-03-29T02:31:03.631Z,0.50
2023-03-29T02:34:21.928Z,0.40
2023-03-29T02:37:26.458Z,0.50
2023-03-29T02:40:29.131Z,0.60
2023-03-29T02:43:31.303Z,0.57
2023-03-29T02:46:33.187Z,0.30
2023-03-29T02:49:35.201Z,0.40
2023-03-29T02:52:40.547Z,0.47
2023-03-29T02:55:42.772Z,0.80
2023-03-29T02:58:44.531Z,0.77
2023-03-29T03:01:47.298Z,0.43
2023-03-29T03:04:50.942Z,0.60
2023-03-29T03:07:53.081Z,0.70
2023-03-29T03:10:55.376Z,0.67
2023-03-29T03:13:57.472Z,1.00
2023-03-29T03:16:59.929Z,0.50
2023-03-29T03:20:03.826Z,0.50
2023-03-29T03:23:05.800Z,0.70
2023-03-29T03:26:09.010Z,0.70
2023-03-29T03:29:11.510Z,0.90
2023-03-29T03:32:13.877Z,0.67
2023-03-29T03:35:16.459Z,0.70
2023-03-29T03:38:18.483Z,0.60
2023-03-29T03:41:20.374Z,0.73
2023-03-29T03:44:22.404Z,0.60
2023-03-29T03:47:24.961Z,0.60
2023-03-29T03:50:27.277Z,0.60
2023-03-29T03:53:29.163Z,0.70
2023-03-29T03:56:31.097Z,0.77
2023-03-29T03:59:33.035Z,0.83
2023-03-29T04:02:34.987Z,0.40
2023-03-29T04:05:40.800Z,0.80
2023-03-29T04:08:43.085Z,0.57
2023-03-29T04:11:44.964Z,0.70
2023-03-29T04:14:49.152Z,0.67
2023-03-29T04:17:51.021Z,0.60
2023-03-29T04:20:52.981Z,0.60
2023-03-29T04:23:55.000Z,0.40
2023-03-29T04:26:56.920Z,0.70
2023-03-29T04:29:58.820Z,0.60
2023-03-29T04:33:00.875Z,0.70
2023-03-29T04:36:02.815Z,1.03
2023-03-29T04:39:05.714Z,1.27
2023-03-29T04:42:07.683Z,1.00
2023-03-29T04:45:10.194Z,1.00
2023-03-29T04:48:12.092Z,0.80
2023-03-29T04:51:14.124Z,0.73
2023-03-29T04:54:16.001Z,1.00
2023-03-29T04:57:18.004Z,1.33
2023-03-29T05:00:21.494Z,1.13
2023-03-29T05:03:25.807Z,0.43
2023-03-29T05:06:29.452Z,0.60
2023-03-29T05:09:32.560Z,0.57
2023-03-29T05:12:36.969Z,0.67
2023-03-29T05:15:41.243Z,0.60
2023-03-29T05:18:43.227Z,0.70
2023-03-29T05:21:46.137Z,0.50
2023-03-29T05:24:48.028Z,0.60
2023-03-29T05:27:50.217Z,0.70
2023-03-29T05:31:06.089Z,1.00
2023-03-29T05:34:09.097Z,0.80
2023-03-29T05:37:10.982Z,1.17
2023-03-29T05:40:13.500Z,0.70
2023-03-29T05:43:15.441Z,0.70
2023-03-29T05:46:18.093Z,0.70
2023-03-29T05:49:20.178Z,0.77
2023-03-29T05:52:22.514Z,1.13
2023-03-29T05:55:24.448Z,1.53
2023-03-29T05:58:26.863Z,1.13
2023-03-29T06:01:29.054Z,1.13
2023-03-29T06:04:32.116Z,0.73
2023-03-29T06:07:33.955Z,0.80
2023-03-29T06:10:37.731Z,0.73
2023-03-29T06:13:39.813Z,0.67
2023-03-29T06:16:43.460Z,0.63
2023-03-29T06:19:45.308Z,0.80
2023-03-29T06:22:48.452Z,0.50
2023-03-29T06:25:51.729Z,0.77
2023-03-29T06:28:54.740Z,0.77
2023-03-29T06:31:57.421Z,0.70
2023-03-29T06:34:59.429Z,0.90
2023-03-29T06:38:01.780Z,1.10
2023-03-29T06:41:06.368Z,0.77
2023-03-29T06:44:09.288Z,0.83
2023-03-29T06:47:11.162Z,0.60
2023-03-29T06:50:15.001Z,0.80
2023-03-29T06:53:17.578Z,0.80
2023-03-29T06:56:19.622Z,0.87
2023-03-29T06:59:21.871Z,0.60
2023-03-29T07:02:23.846Z,0.80
2023-03-29T07:05:29.774Z,0.60
2023-03-29T07:08:32.028Z,0.77
2023-03-29T07:11:36.060Z,0.97
2023-03-29T07:14:37.982Z,0.90
2023-03-29T07:18:11.970Z,0.83
2023-03-29T07:21:13.942Z,1.23
2023-03-29T07:24:16.144Z,1.40
2023-03-29T07:27:18.462Z,3.10
2023-03-29T07:30:25.795Z,1.20
2023-03-29T07:33:27.786Z,0.70
2023-03-29T07:36:29.858Z,1.00
2023-03-29T07:39:31.748Z,1.50
2023-03-29T07:42:33.668Z,1.57
2023-03-29T07:45:45.806Z,0.70
2023-03-29T07:49:35.699Z,0.80
2023-03-29T07:52:57.062Z,0.67
2023-03-29T07:55:59.217Z,0.90
2023-03-29T07:59:02.370Z,0.60
2023-03-29T08:02:04.756Z,0.60
2023-03-29T08:05:41.378Z,0.67
2023-03-29T08:08:43.752Z,0.70
2023-03-29T08:11:45.490Z,0.67
2023-03-29T08:14:47.556Z,1.00
2023-03-29T08:17:49.428Z,0.70
2023-03-29T08:20:52.162Z,0.60
2023-03-29T08:23:57.153Z,0.90
2023-03-29T08:26:59.099Z,1.20
2023-03-29T08:30:01.256Z,0.80
2023-03-29T08:33:03.454Z,0.87
2023-03-29T08:36:05.687Z,0.73
2023-03-29T08:39:07.693Z,0.93
2023-03-29T08:42:43.542Z,0.90
2023-03-29T08:46:09.745Z,0.87
2023-03-29T08:49:12.615Z,0.80
2023-03-29T08:57:14.803Z,0.83
2023-03-29T09:00:51.553Z,1.00
2023-03-29T09:04:09.906Z,1.17
2023-03-29T09:07:12.436Z,0.80
2023-03-29T09:10:19.232Z,0.80
2023-03-29T09:13:52.337Z,0.77
2023-03-29T09:17:09.412Z,0.60
2023-03-29T09:20:27.717Z,0.90
2023-03-29T09:23:44.992Z,0.90
2023-03-29T09:26:55.457Z,1.00
2023-03-29T09:30:04.905Z,0.60
2023-03-29T09:33:27.780Z,0.93
2023-03-29T09:36:32.373Z,2.23
2023-03-29T09:39:53.898Z,0.60
2023-03-29T09:42:56.344Z,1.07
2023-03-29T09:46:02.119Z,0.70
2023-03-29T09:49:07.199Z,0.70
2023-03-29T09:52:15.058Z,0.80
2023-03-29T09:55:18.247Z,0.60
2023-03-29T09:58:23.573Z,0.87
2023-03-29T10:01:35.716Z,0.90
2023-03-29T10:04:39.079Z,0.77
2023-03-29T10:07:46.498Z,0.90
2023-03-29T10:10:49.741Z,0.80
2023-03-29T10:13:57.180Z,0.83
2023-03-29T10:16:59.788Z,1.00
2023-03-29T10:20:04.532Z,0.90
2023-03-29T10:23:09.427Z,0.93
2023-03-29T10:26:32.987Z,0.90
2023-03-29T10:29:39.254Z,0.87
2023-03-29T10:32:44.676Z,0.80
2023-03-29T10:35:47.578Z,1.13
2023-03-29T10:38:51.274Z,1.00
2023-03-29T10:41:54.040Z,0.50
2023-03-29T10:44:58.707Z,0.90
2023-03-29T10:48:01.726Z,0.90
2023-03-29T10:51:05.977Z,0.93
2023-03-29T10:54:14.795Z,1.00
2023-03-29T10:57:57.913Z,0.70
2023-03-29T11:01:37.656Z,0.90
2023-03-29T11:09:00.360Z,0.70
2023-03-29T11:12:27.279Z,0.63
2023-03-29T11:15:53.176Z,0.90
2023-03-29T11:19:33.605Z,0.93
2023-03-29T11:22:38.603Z,0.70
2023-03-29T11:26:02.698Z,0.70
2023-03-29T11:29:39.012Z,0.70
2023-03-29T11:32:55.786Z,0.77
2023-03-29T11:36:12.963Z,0.90
2023-03-29T11:39:44.588Z,1.17
2023-03-29T11:42:49.015Z,1.20
2023-03-29T11:45:56.194Z,0.80
2023-03-29T11:49:10.712Z,0.70
2023-03-29T11:52:12.481Z,0.83
2023-03-29T11:55:18.602Z,0.40
2023-03-29T11:58:27.866Z,0.70
2023-03-29T12:01:39.089Z,0.50
2023-03-29T12:04:49.486Z,0.70
2023-03-29T12:07:57.241Z,0.50
2023-03-29T12:11:12.376Z,0.80
2023-03-29T12:14:17.528Z,0.83
2023-03-29T12:18:00.657Z,0.50
2023-03-29T12:21:05.245Z,0.83
2023-03-29T12:24:12.338Z,0.80
2023-03-29T12:27:21.123Z,0.40
2023-03-29T12:30:50.938Z,0.90
2023-03-29T12:34:25.766Z,0.60
2023-03-29T12:37:36.428Z,0.53
2023-03-29T12:40:46.802Z,0.70
2023-03-29T12:43:49.168Z,0.90
2023-03-29T12:46:56.370Z,0.90
2023-03-29T12:50:00.514Z,0.70
2023-03-29T12:53:05.062Z,0.57
2023-03-29T12:56:11.890Z,1.00
2023-03-29T12:59:27.492Z,1.10
2023-03-29T13:02:37.386Z,0.70
2023-03-29T13:05:39.759Z,0.70
2023-03-29T13:08:44.041Z,0.90
2023-03-29T13:11:53.634Z,0.63
2023-03-29T13:14:58.715Z,0.80
2023-03-29T13:18:20.724Z,0.80
2023-03-29T13:21:39.312Z,0.70
2023-03-29T13:24:44.989Z,0.73
2023-03-29T13:27:59.266Z,0.80
2023-03-29T13:31:26.990Z,0.77
2023-03-29T13:34:44.162Z,1.47
2023-03-29T13:38:00.660Z,1.40
2023-03-29T13:41:07.528Z,2.53
2023-03-29T13:44:39.275Z,3.17
2023-03-29T13:47:58.433Z,4.73
2023-03-29T13:51:14.744Z,3.47
2023-03-29T13:54:19.589Z,6.50
2023-03-29T13:57:50.418Z,1.97
2023-03-29T14:01:01.715Z,0.90
2023-03-29T14:04:05.979Z,1.70
2023-03-29T14:07:10.739Z,1.77
2023-03-29T14:10:19.767Z,3.10
2023-03-29T14:13:24.055Z,2.70
2023-03-29T14:16:34.087Z,3.10
2023-03-29T14:19:38.050Z,0.67
2023-03-29T14:22:42.743Z,3.03
2023-03-29T14:25:44.621Z,3.03
2023-03-29T14:28:56.820Z,4.83
2023-03-29T14:32:10.425Z,2.77
2023-03-29T14:35:13.212Z,2.63
2023-03-29T14:38:16.659Z,1.15
2023-03-29T14:41:18.956Z,0.60
2023-03-29T14:44:22.641Z,0.73
2023-03-29T14:47:28.496Z,1.10
2023-03-29T14:50:31.767Z,1.07
2023-03-29T14:53:34.763Z,0.85
2023-03-29T14:56:36.862Z,0.80
2023-03-29T14:59:42.761Z,0.60
2023-03-29T15:02:55.233Z,0.80
2023-03-29T15:06:03.175Z,0.60
2023-03-29T15:09:06.767Z,0.80
2023-03-29T15:12:15.314Z,1.03
2023-03-29T15:15:17.541Z,0.70
2023-03-29T15:18:24.040Z,0.90
2023-03-29T15:21:32.481Z,1.00
2023-03-29T15:24:54.450Z,1.73
2023-03-29T15:28:00.276Z,0.80
2023-03-29T15:31:11.076Z,0.70
2023-03-29T15:34:25.213Z,0.73
2023-03-29T15:37:27.865Z,0.90
2023-03-29T15:40:29.783Z,0.80
2023-03-29T15:43:33.018Z,0.90
2023-03-29T15:46:34.915Z,0.70
2023-03-29T15:49:36.929Z,0.83
2023-03-29T15:52:39.852Z,0.63
2023-03-29T15:55:45.082Z,0.70
2023-03-29T15:58:48.091Z,0.60
2023-03-29T16:01:50.303Z,0.70
2023-03-29T16:04:52.229Z,0.70
2023-03-29T16:08:02.101Z,0.90
2023-03-29T16:11:05.334Z,0.63
2023-03-29T16:14:23.491Z,0.97
2023-03-29T16:17:25.370Z,0.77
2023-03-29T16:20:27.591Z,1.17
2023-03-29T16:23:29.357Z,0.70
2023-03-29T16:26:32.062Z,1.30
2023-03-29T16:29:33.998Z,1.37
2023-03-29T16:32:36.040Z,1.07
2023-03-29T16:35:40.332Z,0.80
2023-03-29T16:38:42.376Z,0.97
2023-03-29T16:41:48.534Z,0.90
2023-03-29T16:44:50.665Z,1.10
2023-03-29T16:47:52.587Z,0.83
2023-03-29T16:50:54.967Z,0.83
2023-03-29T16:53:57.090Z,0.80
2023-03-29T16:56:59.872Z,0.90
2023-03-29T17:00:02.169Z,1.00
2023-03-29T17:03:05.150Z,0.90
2023-03-29T17:06:08.181Z,1.03
2023-03-29T17:09:10.386Z,1.00
2023-03-29T17:12:12.479Z,0.90
2023-03-29T17:15:14.978Z,0.80
2023-03-29T17:18:16.782Z,0.90
2023-03-29T17:21:19.416Z,0.90
2023-03-29T17:24:21.251Z,1.00
2023-03-29T17:27:23.239Z,1.07
2023-03-29T17:30:31.692Z,1.40
2023-03-29T17:33:35.541Z,1.00
2023-03-29T17:36:37.569Z,2.20
2023-03-29T17:40:12.909Z,1.17
2023-03-29T17:43:14.802Z,1.20
2023-03-29T17:46:35.142Z,1.33
2023-03-29T17:49:37.200Z,0.90
2023-03-29T17:52:40.075Z,1.37
2023-03-29T17:55:43.016Z,1.67
2023-03-29T17:58:45.439Z,3.40
2023-03-29T18:01:47.367Z,2.90
2023-03-29T18:04:50.006Z,2.90
2023-03-29T18:07:52.091Z,2.20
2023-03-29T18:15:08.955Z,1.73
2023-03-29T18:18:11.533Z,1.80
2023-03-29T18:22:23.526Z,1.60
2023-03-29T18:25:25.377Z,1.50
2023-03-29T18:29:26.436Z,1.70
2023-03-29T18:32:47.477Z,3.20
2023-03-29T18:35:52.031Z,1.10
2023-03-29T18:39:06.062Z,1.47
2023-03-29T18:42:10.930Z,1.43
2023-03-29T18:46:15.523Z,1.70
2023-03-29T18:49:17.783Z,1.43
2023-03-29T18:52:19.623Z,1.50
2023-03-29T18:55:22.260Z,1.40
2023-03-29T18:58:24.396Z,1.47
2023-03-29T19:01:26.364Z,1.30
2023-03-29T19:04:28.944Z,1.50
2023-03-29T19:07:30.994Z,1.37
2023-03-29T19:10:37.533Z,1.33
2023-03-29T19:14:09.788Z,1.10
2023-03-29T19:17:45.712Z,1.13
2023-03-29T19:20:51.204Z,1.03
2023-03-29T19:23:53.498Z,0.90
2023-03-29T19:26:56.728Z,1.20
2023-03-29T19:29:58.584Z,0.90
2023-03-29T19:33:21.844Z,1.40
2023-03-29T19:36:23.707Z,1.87
2023-03-29T19:39:31.785Z,1.30
2023-03-29T19:42:37.387Z,1.40
2023-03-29T19:45:39.931Z,1.10
2023-03-29T19:48:42.399Z,1.20
2023-03-29T19:51:44.530Z,1.10
2023-03-29T19:54:46.372Z,1.10
2023-03-29T19:57:48.786Z,1.00
2023-03-29T20:00:53.579Z,1.10
2023-03-29T20:03:55.575Z,1.20
2023-03-29T20:06:57.917Z,1.00
2023-03-29T20:10:00.337Z,1.37
2023-03-29T20:13:03.271Z,1.60
2023-03-29T20:16:14.292Z,1.33
2023-03-29T20:19:17.902Z,1.43
2023-03-29T20:22:20.069Z,1.20
2023-03-29T20:25:21.994Z,1.30
2023-03-29T20:28:24.890Z,1.27
2023-03-29T20:31:27.546Z,1.10
2023-03-29T20:34:29.675Z,1.30
2023-03-29T20:37:31.822Z,0.87
2023-03-29T20:40:34.813Z,1.33
2023-03-29T20:43:41.445Z,1.00
2023-03-29T20:46:47.027Z,1.20
2023-03-29T20:49:54.246Z,0.87
2023-03-29T20:52:56.940Z,1.23
2023-03-29T20:55:59.119Z,1.13
2023-03-29T20:59:01.383Z,1.30
2023-03-29T21:02:03.257Z,1.00
2023-03-29T21:05:06.196Z,1.37
2023-03-29T21:08:08.636Z,1.63
2023-03-29T21:11:13.904Z,1.10
2023-03-29T21:14:19.846Z,1.20
2023-03-29T21:17:22.001Z,1.47
2023-03-29T21:20:24.360Z,1.57
2023-03-29T21:23:26.613Z,1.57
2023-03-29T21:26:28.892Z,1.20
2023-03-29T21:29:31.551Z,1.20
2023-03-29T21:32:33.441Z,1.50
2023-03-29T21:35:35.897Z,1.40
2023-03-29T21:38:37.750Z,1.10
2023-03-29T21:41:39.814Z,1.07
2023-03-29T21:44:41.628Z,1.33
2023-03-29T21:47:43.480Z,1.10
2023-03-29T21:50:48.880Z,1.10
2023-03-29T21:53:51.024Z,0.83
2023-03-29T21:56:52.947Z,1.40
2023-03-29T21:59:54.832Z,1.17
2023-03-29T22:02:57.242Z,1.50
2023-03-29T22:06:01.562Z,1.20
2023-03-29T22:09:05.334Z,0.90
2023-03-29T22:12:07.728Z,1.30
2023-03-29T22:15:14.063Z,1.10
2023-03-29T22:18:16.084Z,1.17
2023-03-29T22:21:24.615Z,1.47
2023-03-29T22:24:26.550Z,1.47
2023-03-29T22:27:28.420Z,1.67
2023-03-29T22:30:30.373Z,1.50
2023-03-29T22:33:35.805Z,1.27
2023-03-29T22:36:37.931Z,1.67
2023-03-29T22:39:39.783Z,1.40
2023-03-29T22:42:41.710Z,1.60
2023-03-29T22:45:43.777Z,1.20
2023-03-29T22:48:46.501Z,1.43
2023-03-29T22:51:48.536Z,1.23
2023-03-29T22:54:50.769Z,1.40
2023-03-29T22:57:52.949Z,1.00
2023-03-29T23:00:57.324Z,1.50
2023-03-29T23:03:59.256Z,1.60
2023-03-29T23:07:02.507Z,1.23
2023-03-29T23:10:06.757Z,1.33
2023-03-29T23:13:08.922Z,1.70
2023-03-29T23:16:10.832Z,1.33
2023-03-29T23:19:12.759Z,1.33
2023-03-29T23:22:14.624Z,1.63
2023-03-29T23:25:16.862Z,1.23
2023-03-29T23:28:21.905Z,2.00
2023-03-29T23:31:24.671Z,1.80
2023-03-29T23:34:26.612Z,1.70
2023-03-29T23:37:28.591Z,2.07
2023-03-29T23:40:30.404Z,1.60
2023-03-29T23:43:35.327Z,1.47
2023-03-29T23:46:37.154Z,1.60
2023-03-29T23:49:39.113Z,1.70
2023-03-29T23:52:41.700Z,1.47
2023-03-29T23:55:43.642Z,1.57
2023-03-29T23:58:45.787Z,1.50
